createdAt,value
2019-05-05T00:01:14.700Z,4.40
2019-05-05T00:03:55.040Z,4.50
2019-05-05T00:06:24.952Z,4.50
2019-05-05T00:08:54.755Z,4.50
2019-05-05T00:11:35.195Z,4.50
2019-05-05T00:14:05.563Z,4.60
2019-05-05T00:16:47.456Z,4.40
2019-05-05T00:19:28.998Z,4.40
2019-05-05T00:22:05.371Z,4.40
2019-05-05T00:24:35.078Z,4.40
2019-05-05T00:27:04.287Z,4.40
2019-05-05T00:29:34.704Z,4.40
2019-05-05T00:32:04.960Z,4.40
2019-05-05T00:34:34.990Z,4.30
2019-05-05T00:37:06.779Z,4.20
2019-05-05T00:39:35.210Z,4.20
2019-05-05T00:42:04.765Z,4.20
2019-05-05T00:44:35.250Z,4.10
2019-05-05T00:47:08.382Z,4.10
2019-05-05T00:49:46.489Z,4.20
2019-05-05T00:52:08.674Z,4.10
2019-05-05T00:54:37.121Z,4.10
2019-05-05T00:57:07.077Z,4.00
2019-05-05T00:59:35.658Z,4.10
2019-05-05T01:02:22.088Z,4.10
2019-05-05T01:04:55.135Z,4.10
2019-05-05T01:07:24.726Z,4.20
2019-05-05T01:09:54.263Z,4.30
2019-05-05T01:12:24.359Z,4.30
2019-05-05T01:14:55.122Z,4.30
2019-05-05T01:17:25.254Z,4.20
2019-05-05T01:20:01.133Z,4.10
2019-05-05T01:22:24.960Z,4.10
2019-05-05T01:24:55.412Z,4.00
2019-05-05T01:27:25.373Z,4.00
2019-05-05T01:29:54.711Z,4.00
2019-05-05T01:32:24.953Z,4.00
2019-05-05T01:34:54.891Z,4.00
2019-05-05T01:37:28.309Z,4.00
2019-05-05T01:39:58.377Z,4.10
2019-05-05T01:42:26.797Z,4.00
2019-05-05T01:44:55.352Z,4.00
2019-05-05T01:47:25.524Z,4.00
2019-05-05T01:49:54.553Z,4.00
2019-05-05T01:52:25.287Z,4.00
2019-05-05T01:54:54.810Z,4.00
2019-05-05T01:57:25.210Z,4.00
2019-05-05T01:59:55.340Z,4.10
2019-05-05T02:02:25.091Z,4.10
2019-05-05T02:04:55.365Z,4.00
2019-05-05T02:07:25.042Z,4.00
2019-05-05T02:09:55.395Z,4.00
2019-05-05T02:12:24.688Z,4.00
2019-05-05T02:14:55.122Z,4.10
2019-05-05T02:17:24.718Z,4.10
2019-05-05T02:19:54.951Z,4.10
2019-05-05T02:22:25.265Z,4.00
2019-05-05T02:24:55.104Z,4.00
2019-05-05T02:27:25.246Z,4.10
2019-05-05T02:30:06.273Z,4.00
2019-05-05T02:32:38.966Z,4.00
2019-05-05T02:35:10.698Z,3.90
2019-05-05T02:37:39.127Z,3.90
2019-05-05T02:40:09.785Z,3.90
2019-05-05T02:42:38.873Z,4.00
2019-05-05T02:45:10.021Z,3.90
2019-05-05T02:47:46.553Z,3.90
2019-05-05T02:50:16.192Z,3.80
2019-05-05T02:52:45.188Z,3.80
2019-05-05T02:55:14.673Z,3.70
2019-05-05T02:57:43.976Z,3.70
2019-05-05T03:00:24.071Z,3.80
2019-05-05T03:02:54.954Z,3.80
2019-05-05T03:05:23.745Z,3.80
2019-05-05T03:07:54.521Z,3.80
2019-05-05T03:10:24.916Z,3.80
2019-05-05T03:12:54.478Z,3.80
2019-05-05T03:15:45.570Z,3.80
2019-05-05T03:18:14.438Z,3.70
2019-05-05T03:20:43.658Z,3.80
2019-05-05T03:23:13.643Z,3.80
2019-05-05T03:25:44.016Z,3.70
2019-05-05T03:28:13.675Z,3.70
2019-05-05T03:30:45.509Z,3.70
2019-05-05T03:33:15.916Z,3.70
2019-05-05T03:35:46.970Z,3.80
2019-05-05T03:38:16.579Z,3.80
2019-05-05T03:40:47.217Z,3.80
2019-05-05T03:43:20.565Z,3.80
2019-05-05T03:45:54.208Z,3.80
2019-05-05T03:48:24.102Z,3.80
2019-05-05T03:50:54.065Z,3.80
2019-05-05T03:53:24.592Z,3.80
2019-05-05T03:55:54.592Z,3.80
2019-05-05T03:58:24.149Z,3.70
2019-05-05T04:01:01.817Z,3.70
2019-05-05T04:03:30.246Z,3.80
2019-05-05T04:06:00.479Z,3.70
2019-05-05T04:08:29.253Z,3.80
2019-05-05T04:10:57.674Z,3.90
2019-05-05T04:13:27.278Z,3.90
2019-05-05T04:16:07.638Z,3.90
2019-05-05T04:18:43.656Z,3.90
2019-05-05T04:21:15.028Z,3.90
2019-05-05T04:23:44.160Z,4.00
2019-05-05T04:26:14.274Z,4.00
2019-05-05T04:28:43.630Z,4.00
2019-05-05T04:31:13.686Z,4.10
2019-05-05T04:33:44.313Z,4.10
2019-05-05T04:36:14.327Z,4.10
2019-05-05T04:38:43.972Z,4.10
2019-05-05T04:41:14.075Z,4.10
2019-05-05T04:43:44.212Z,4.10
2019-05-05T04:46:14.038Z,4.10
2019-05-05T04:48:47.030Z,4.10
2019-05-05T04:51:17.193Z,4.20
2019-05-05T04:54:04.133Z,4.40
2019-05-05T04:56:34.322Z,4.50
2019-05-05T04:59:04.006Z,4.50
2019-05-05T05:01:33.650Z,4.60
2019-05-05T05:04:06.965Z,4.60
2019-05-05T05:06:37.085Z,4.70
2019-05-05T05:09:06.581Z,4.80
2019-05-05T05:11:35.086Z,4.90
2019-05-05T05:14:04.894Z,4.90
2019-05-05T05:16:33.297Z,4.90
2019-05-05T05:19:01.731Z,4.80
2019-05-05T05:21:30.164Z,4.80
2019-05-05T05:23:58.594Z,4.80
2019-05-05T05:26:27.038Z,4.80
2019-05-05T05:28:55.455Z,4.70
2019-05-05T05:31:25.930Z,4.90
2019-05-05T05:33:54.891Z,4.90
2019-05-05T05:36:24.761Z,5.00
2019-05-05T05:38:55.110Z,5.10
2019-05-05T05:41:41.095Z,5.30
2019-05-05T05:44:11.181Z,5.40
2019-05-05T05:46:56.497Z,5.50
2019-05-05T05:49:32.230Z,5.60
2019-05-05T05:52:12.436Z,5.70
2019-05-05T05:54:33.924Z,5.90
2019-05-05T05:57:01.851Z,6.00
2019-05-05T05:59:30.941Z,6.00
2019-05-05T06:02:09.173Z,6.10
2019-05-05T06:04:29.611Z,6.10
2019-05-05T06:06:58.120Z,6.10
2019-05-05T06:09:26.545Z,6.10
2019-05-05T06:11:55.042Z,6.30
2019-05-05T06:14:25.001Z,6.20
2019-05-05T06:16:53.987Z,6.30
2019-05-05T06:19:24.502Z,6.30
2019-05-05T06:21:54.319Z,6.20
2019-05-05T06:24:24.037Z,6.20
2019-05-05T06:26:54.596Z,6.30
2019-05-05T06:29:23.899Z,7.20
2019-05-05T06:31:53.785Z,7.80
2019-05-05T06:34:24.476Z,8.00
2019-05-05T06:36:53.747Z,8.40
2019-05-05T06:39:24.170Z,8.50
2019-05-05T06:41:57.013Z,8.30
2019-05-05T06:44:35.963Z,8.80
2019-05-05T06:47:06.032Z,9.10
2019-05-05T06:49:34.683Z,9.00
2019-05-05T06:52:04.191Z,9.70
2019-05-05T06:54:34.847Z,9.70
2019-05-05T06:57:04.511Z,9.50
2019-05-05T06:59:34.994Z,9.80
2019-05-05T07:02:04.370Z,9.90
2019-05-05T07:04:33.964Z,10.80
2019-05-05T07:07:05.177Z,10.30
2019-05-05T07:09:34.034Z,10.10
2019-05-05T07:12:04.292Z,9.10
2019-05-05T07:14:33.997Z,8.60
2019-05-05T07:17:04.887Z,8.20
2019-05-05T07:19:34.467Z,8.00
2019-05-05T07:22:04.328Z,8.00
2019-05-05T07:24:34.525Z,8.00
2019-05-05T07:27:04.716Z,8.20
2019-05-05T07:29:34.258Z,8.10
2019-05-05T07:32:04.281Z,8.20
2019-05-05T07:34:49.789Z,8.00
2019-05-05T07:37:18.266Z,8.10
2019-05-05T07:39:46.694Z,8.10
2019-05-05T07:42:15.165Z,8.10
2019-05-05T07:44:44.091Z,8.20
2019-05-05T07:47:14.575Z,8.50
2019-05-05T07:49:44.182Z,8.40
2019-05-05T07:52:15.166Z,8.40
2019-05-05T07:54:43.958Z,8.40
2019-05-05T07:57:14.502Z,8.50
2019-05-05T07:59:44.553Z,8.60
2019-05-05T08:02:14.576Z,8.80
2019-05-05T08:04:43.742Z,8.70
2019-05-05T08:07:14.581Z,8.80
2019-05-05T08:09:44.436Z,8.60
2019-05-05T08:12:13.697Z,8.50
2019-05-05T08:14:44.394Z,8.70
2019-05-05T08:17:30.837Z,9.10
2019-05-05T08:20:06.933Z,9.20
2019-05-05T08:22:36.600Z,9.40
2019-05-05T08:25:36.436Z,9.20
2019-05-05T08:27:59.015Z,9.30
2019-05-05T08:30:29.100Z,9.20
2019-05-05T08:32:57.695Z,9.00
2019-05-05T08:35:26.133Z,8.70
2019-05-05T08:37:54.565Z,8.70
2019-05-05T08:40:23.953Z,8.80
2019-05-05T08:42:53.956Z,9.00
2019-05-05T08:45:26.777Z,9.50
2019-05-05T08:47:54.907Z,9.20
2019-05-05T08:50:26.440Z,9.20
2019-05-05T08:52:53.772Z,9.10
2019-05-05T08:55:24.859Z,9.10
2019-05-05T08:57:54.091Z,9.30
2019-05-05T09:00:24.593Z,9.40
2019-05-05T09:02:54.324Z,9.40
2019-05-05T09:05:23.831Z,9.60
2019-05-05T09:07:54.780Z,10.00
2019-05-05T09:10:23.821Z,9.90
2019-05-05T09:12:54.140Z,10.10
2019-05-05T09:15:24.254Z,10.30
2019-05-05T09:17:54.426Z,10.50
2019-05-05T09:20:24.243Z,10.50
2019-05-05T09:22:53.656Z,10.60
2019-05-05T09:25:34.232Z,10.80
2019-05-05T09:28:07.342Z,11.00
2019-05-05T09:30:44.473Z,11.10
2019-05-05T09:33:14.246Z,10.90
2019-05-05T09:35:43.731Z,10.90
2019-05-05T09:38:14.522Z,10.70
2019-05-05T09:40:43.942Z,10.50
2019-05-05T09:43:14.709Z,10.20
2019-05-05T09:45:44.137Z,10.00
2019-05-05T09:48:13.924Z,9.90
2019-05-05T09:50:43.644Z,9.90
2019-05-05T09:53:14.552Z,9.60
2019-05-05T09:55:44.547Z,9.70
2019-05-05T09:58:13.810Z,9.90
2019-05-05T10:00:44.297Z,10.10
2019-05-05T10:03:14.585Z,10.30
2019-05-05T10:05:45.245Z,10.30
2019-05-05T10:08:14.396Z,10.10
2019-05-05T10:10:45.973Z,9.80
2019-05-05T10:13:15.085Z,9.50
2019-05-05T10:15:44.323Z,9.30
2019-05-05T10:18:14.115Z,9.20
2019-05-05T10:20:43.420Z,9.50
2019-05-05T10:23:14.124Z,9.90
2019-05-05T10:25:48.019Z,10.10
2019-05-05T10:28:17.542Z,9.70
2019-05-05T10:30:46.034Z,9.20
2019-05-05T10:33:14.501Z,9.10
2019-05-05T10:35:43.863Z,9.40
2019-05-05T10:38:14.276Z,9.70
2019-05-05T10:40:44.702Z,9.80
2019-05-05T10:43:14.838Z,9.80
2019-05-05T10:45:44.041Z,10.10
2019-05-05T10:48:14.350Z,9.90
2019-05-05T10:50:44.440Z,9.60
2019-05-05T10:53:13.727Z,9.60
2019-05-05T10:55:44.714Z,9.40
2019-05-05T10:58:13.796Z,9.50
2019-05-05T11:00:46.069Z,9.70
2019-05-05T11:03:15.199Z,9.80
2019-05-05T11:05:45.054Z,10.00
2019-05-05T11:08:14.275Z,10.00
2019-05-05T11:10:45.136Z,9.90
2019-05-05T11:13:14.467Z,10.00
2019-05-05T11:15:44.278Z,9.90
2019-05-05T11:18:14.747Z,9.70
2019-05-05T11:20:44.794Z,9.60
2019-05-05T11:23:14.856Z,9.80
2019-05-05T11:25:44.224Z,9.90
2019-05-05T11:28:14.000Z,9.90
2019-05-05T11:30:45.410Z,9.90
2019-05-05T11:33:18.238Z,10.10
2019-05-05T11:35:48.623Z,10.30
2019-05-05T11:38:17.150Z,10.30
2019-05-05T11:40:45.583Z,10.30
2019-05-05T11:43:14.325Z,10.50
2019-05-05T11:45:43.813Z,10.50
2019-05-05T11:48:14.611Z,10.60
2019-05-05T11:50:44.154Z,10.90
2019-05-05T11:53:14.513Z,10.90
2019-05-05T11:55:44.483Z,10.90
2019-05-05T11:58:14.346Z,11.00
2019-05-05T12:00:44.478Z,11.00
2019-05-05T12:03:14.301Z,11.00
2019-05-05T12:05:44.227Z,11.10
2019-05-05T12:08:14.728Z,10.90
2019-05-05T12:10:44.931Z,11.00
2019-05-05T12:13:14.733Z,11.10
2019-05-05T12:15:45.033Z,11.20
2019-05-05T12:18:14.380Z,11.10
2019-05-05T12:20:44.155Z,11.30
2019-05-05T12:23:12.740Z,11.20
2019-05-05T12:25:43.710Z,10.90
2019-05-05T12:28:24.159Z,10.90
2019-05-05T12:30:55.669Z,11.20
2019-05-05T12:33:24.331Z,11.20
2019-05-05T12:35:54.357Z,10.90
2019-05-05T12:38:24.104Z,11.20
2019-05-05T12:40:53.559Z,11.10
2019-05-05T12:43:24.659Z,11.40
2019-05-05T12:45:55.106Z,11.40
2019-05-05T12:48:25.324Z,11.00
2019-05-05T12:50:53.763Z,10.80
2019-05-05T12:53:23.969Z,10.90
2019-05-05T12:55:53.836Z,10.90
2019-05-05T12:58:23.034Z,10.80
2019-05-05T13:01:07.949Z,11.00
2019-05-05T13:03:36.374Z,10.90
2019-05-05T13:06:05.657Z,11.10
2019-05-05T13:08:35.390Z,11.00
2019-05-05T13:11:04.120Z,11.30
2019-05-05T13:13:34.412Z,11.40
2019-05-05T13:16:04.280Z,11.10
2019-05-05T13:18:33.955Z,11.00
2019-05-05T13:21:20.872Z,11.00
2019-05-05T13:23:53.846Z,11.30
2019-05-05T13:26:28.282Z,11.30
2019-05-05T13:28:56.715Z,11.50
2019-05-05T13:31:25.185Z,11.70
2019-05-05T13:33:54.853Z,11.50
2019-05-05T13:36:24.255Z,11.30
2019-05-05T13:38:54.526Z,11.40
2019-05-05T13:41:23.306Z,11.40
2019-05-05T13:43:53.974Z,11.30
2019-05-05T13:46:25.450Z,11.50
2019-05-05T13:48:54.016Z,11.70
2019-05-05T13:51:24.022Z,11.80
2019-05-05T13:53:54.005Z,12.00
2019-05-05T13:56:24.450Z,12.10
2019-05-05T13:58:53.214Z,12.60
2019-05-05T14:01:23.540Z,12.40
2019-05-05T14:03:57.602Z,11.80
2019-05-05T14:06:24.660Z,12.30
2019-05-05T14:08:54.105Z,12.70
2019-05-05T14:11:24.793Z,12.10
2019-05-05T14:13:53.356Z,12.40
2019-05-05T14:16:21.785Z,11.90
2019-05-05T14:18:53.610Z,11.60
2019-05-05T14:21:21.905Z,11.50
2019-05-05T14:24:03.994Z,11.40
2019-05-05T14:26:35.169Z,11.30
2019-05-05T14:29:04.285Z,11.20
2019-05-05T14:31:37.160Z,11.00
2019-05-05T14:34:07.283Z,10.80
2019-05-05T14:36:44.115Z,10.90
2019-05-05T14:39:14.774Z,11.10
2019-05-05T14:41:44.586Z,11.00
2019-05-05T14:44:13.503Z,10.90
2019-05-05T14:46:44.432Z,10.80
2019-05-05T14:49:14.082Z,11.10
2019-05-05T14:52:01.934Z,11.70
2019-05-05T14:54:30.377Z,12.00
2019-05-05T14:56:58.874Z,12.10
2019-05-05T14:59:27.326Z,12.20
2019-05-05T15:01:55.767Z,11.70
2019-05-05T15:04:26.017Z,11.40
2019-05-05T15:06:56.100Z,11.30
2019-05-05T15:09:29.277Z,10.70
2019-05-05T15:11:59.375Z,10.90
2019-05-05T15:14:27.897Z,11.30
2019-05-05T15:16:56.333Z,11.40
2019-05-05T15:19:24.766Z,11.10
2019-05-05T15:21:53.664Z,11.20
2019-05-05T15:24:25.109Z,10.90
2019-05-05T15:26:55.206Z,11.00
2019-05-05T15:29:25.263Z,10.90
2019-05-05T15:31:54.159Z,10.90
2019-05-05T15:34:24.222Z,10.80
2019-05-05T15:36:54.446Z,10.70
2019-05-05T15:39:24.704Z,10.60
2019-05-05T15:41:54.147Z,10.60
2019-05-05T15:44:24.121Z,10.70
2019-05-05T15:46:57.328Z,10.50
2019-05-05T15:49:23.646Z,10.40
2019-05-05T15:51:53.882Z,10.40
2019-05-05T15:54:23.606Z,10.30
2019-05-05T15:57:04.802Z,10.10
2019-05-05T15:59:24.010Z,10.10
2019-05-05T16:01:54.737Z,10.20
2019-05-05T16:04:24.746Z,10.70
2019-05-05T16:06:54.066Z,10.90
2019-05-05T16:09:24.001Z,10.90
2019-05-05T16:11:54.424Z,10.70
2019-05-05T16:14:23.832Z,10.60
2019-05-05T16:16:56.003Z,10.50
2019-05-05T16:19:35.159Z,10.40
2019-05-05T16:22:05.230Z,10.30
2019-05-05T16:24:36.585Z,10.30
2019-05-05T16:27:18.812Z,10.30
2019-05-05T16:29:35.678Z,10.10
2019-05-05T16:32:08.164Z,10.10
2019-05-05T16:34:34.372Z,10.20
2019-05-05T16:37:03.832Z,10.40
2019-05-05T16:39:33.566Z,10.50
2019-05-05T16:42:02.281Z,11.10
2019-05-05T16:44:30.854Z,11.60
2019-05-05T16:46:59.368Z,11.50
2019-05-05T16:49:27.789Z,11.50
2019-05-05T16:52:00.630Z,11.20
2019-05-05T16:54:29.676Z,10.60
2019-05-05T16:56:58.098Z,10.40
2019-05-05T16:59:26.534Z,10.40
2019-05-05T17:01:54.974Z,10.60
2019-05-05T17:04:24.349Z,10.50
2019-05-05T17:06:54.619Z,10.30
2019-05-05T17:09:26.933Z,10.40
2019-05-05T17:14:54.035Z,10.20
2019-05-05T17:17:26.045Z,10.00
2019-05-05T17:19:55.650Z,10.00
2019-05-05T17:22:25.959Z,10.20
2019-05-05T17:24:54.638Z,10.20
2019-05-05T17:27:24.517Z,10.30
2019-05-05T17:29:53.618Z,10.40
2019-05-05T17:32:24.895Z,10.30
2019-05-05T17:34:54.124Z,10.20
2019-05-05T17:37:23.937Z,10.20
2019-05-05T17:39:54.654Z,10.10
2019-05-05T17:42:44.028Z,9.50
2019-05-05T17:45:17.821Z,8.90
2019-05-05T17:47:53.970Z,8.40
2019-05-05T17:50:27.068Z,8.40
2019-05-05T17:53:04.909Z,8.50
2019-05-05T17:55:34.931Z,8.60
2019-05-05T17:58:05.239Z,8.50
2019-05-05T18:00:35.154Z,8.30
2019-05-05T18:03:04.384Z,8.20
2019-05-05T18:05:54.514Z,8.30
2019-05-05T18:08:36.553Z,8.20
2019-05-05T18:11:25.431Z,8.20
2019-05-05T18:14:01.461Z,8.10
2019-05-05T18:16:29.898Z,8.00
2019-05-05T18:18:58.427Z,8.40
2019-05-05T18:21:30.347Z,8.40
2019-05-05T18:23:57.001Z,8.70
2019-05-05T18:26:26.290Z,8.90
2019-05-05T18:28:54.731Z,9.30
2019-05-05T18:31:24.263Z,9.50
2019-05-05T18:33:54.294Z,8.00
2019-05-05T18:36:23.209Z,8.50
2019-05-05T18:38:53.667Z,8.30
2019-05-05T18:41:29.390Z,8.20
2019-05-05T18:44:13.303Z,8.20
2019-05-05T18:46:43.478Z,8.20
2019-05-05T18:49:13.767Z,8.10
2019-05-05T18:51:43.808Z,8.20
2019-05-05T18:54:12.121Z,8.10
2019-05-05T18:56:40.565Z,7.20
2019-05-05T18:59:09.578Z,8.10
2019-05-05T19:01:39.641Z,8.10
2019-05-05T19:04:09.714Z,8.00
2019-05-05T19:06:39.779Z,8.00
2019-05-05T19:09:13.623Z,8.00
2019-05-05T19:11:43.637Z,8.00
2019-05-05T19:14:14.208Z,7.90
2019-05-05T19:16:42.362Z,7.80
2019-05-05T19:19:10.802Z,7.80
2019-05-05T19:21:54.737Z,7.80
2019-05-05T19:24:23.227Z,7.80
2019-05-05T19:26:51.765Z,7.70
2019-05-05T19:29:20.476Z,7.80
2019-05-05T19:31:48.907Z,7.70
2019-05-05T19:34:17.338Z,7.70
2019-05-05T19:36:45.772Z,7.60
2019-05-05T19:39:14.209Z,7.50
2019-05-05T19:41:44.324Z,7.50
2019-05-05T19:44:14.677Z,7.50
2019-05-05T19:46:50.685Z,7.50
2019-05-05T19:49:20.062Z,7.40
2019-05-05T19:51:49.173Z,7.40
2019-05-05T19:54:17.662Z,7.30
2019-05-05T19:56:46.154Z,7.30
2019-05-05T19:59:15.589Z,7.20
2019-05-05T20:01:44.956Z,7.20
2019-05-05T20:04:14.616Z,7.10
2019-05-05T20:06:44.178Z,7.10
2019-05-05T20:09:14.123Z,7.00
2019-05-05T20:11:43.730Z,7.00
2019-05-05T20:14:14.867Z,7.10
2019-05-05T20:17:01.072Z,7.10
2019-05-05T20:19:34.031Z,7.00
2019-05-05T20:22:03.898Z,6.90
2019-05-05T20:24:33.724Z,7.00
2019-05-05T20:27:04.539Z,7.10
2019-05-05T20:29:37.075Z,7.00
2019-05-05T20:32:04.326Z,6.90
2019-05-05T20:34:41.975Z,7.00
2019-05-05T20:37:14.064Z,7.00
2019-05-05T20:39:44.177Z,7.00
2019-05-05T20:42:14.941Z,7.00
2019-05-05T20:44:44.580Z,7.00
2019-05-05T20:47:15.013Z,7.00
2019-05-05T20:49:44.430Z,7.00
2019-05-05T20:52:16.315Z,7.10
2019-05-05T20:54:44.817Z,7.00
2019-05-05T20:57:18.555Z,7.10
2019-05-05T20:59:48.344Z,7.20
2019-05-05T21:02:17.236Z,7.20
2019-05-05T21:04:47.834Z,7.20
2019-05-05T21:07:16.351Z,7.30
2019-05-05T21:09:44.775Z,7.30
2019-05-05T21:12:13.899Z,7.20
2019-05-05T21:14:44.445Z,7.10
2019-05-05T21:17:13.669Z,7.20
2019-05-05T21:19:42.560Z,7.20
2019-05-05T21:22:27.875Z,7.20
2019-05-05T21:25:08.875Z,7.20
2019-05-05T21:27:37.746Z,7.10
2019-05-05T21:30:08.702Z,7.20
2019-05-05T21:32:37.250Z,7.20
2019-05-05T21:35:06.456Z,7.10
2019-05-05T21:37:34.892Z,7.20
2019-05-05T21:40:04.648Z,7.10
2019-05-05T21:42:34.995Z,7.10
2019-05-05T21:45:04.986Z,7.20
2019-05-05T21:47:34.498Z,7.20
2019-05-05T21:50:06.505Z,7.30
2019-05-05T21:52:42.261Z,7.20
2019-05-05T21:55:18.234Z,7.30
2019-05-05T21:57:48.314Z,7.20
2019-05-05T22:00:19.842Z,7.20
2019-05-05T22:02:48.413Z,7.20
2019-05-05T22:05:16.998Z,7.10
2019-05-05T22:07:46.261Z,7.50
2019-05-05T22:10:14.705Z,8.00
2019-05-05T22:12:44.717Z,8.40
2019-05-05T22:15:13.808Z,8.20
2019-05-05T22:17:44.644Z,7.70
2019-05-05T22:20:22.812Z,7.40
2019-05-05T22:22:51.602Z,7.00
2019-05-05T22:25:20.037Z,6.80
2019-05-05T22:27:48.481Z,6.70
2019-05-05T22:30:16.927Z,6.70
2019-05-05T22:32:45.438Z,6.90
2019-05-05T22:35:16.325Z,6.80
2019-05-05T22:37:44.986Z,6.80
2019-05-05T22:40:24.144Z,6.70
2019-05-05T22:42:51.641Z,6.80
2019-05-05T22:45:20.147Z,6.80
2019-05-05T22:47:48.567Z,6.80
2019-05-05T22:50:17.338Z,6.90
2019-05-05T22:52:45.980Z,6.90
2019-05-05T22:55:14.775Z,6.80
2019-05-05T22:57:45.182Z,6.70
2019-05-05T23:00:26.561Z,6.60
2019-05-05T23:02:52.075Z,6.60
2019-05-05T23:05:24.980Z,6.60
2019-05-05T23:07:54.561Z,6.60
2019-05-05T23:10:23.537Z,6.60
2019-05-05T23:12:52.023Z,6.60
2019-05-05T23:15:20.471Z,6.40
2019-05-05T23:17:50.527Z,6.40
2019-05-05T23:20:53.958Z,6.40
2019-05-05T23:23:24.034Z,6.40
2019-05-05T23:25:54.483Z,6.40
2019-05-05T23:28:23.749Z,6.20
2019-05-05T23:30:54.686Z,6.20
2019-05-05T23:33:25.024Z,6.10
2019-05-05T23:35:55.036Z,6.20
2019-05-05T23:38:24.012Z,6.10
2019-05-05T23:40:54.119Z,6.20
2019-05-05T23:43:24.771Z,6.20
2019-05-05T23:45:54.071Z,6.10
2019-05-05T23:48:24.071Z,6.00
2019-05-05T23:50:54.155Z,5.90
2019-05-05T23:53:24.902Z,5.80
2019-05-05T23:55:54.600Z,5.80
2019-05-05T23:58:23.987Z,5.80
